• Join FlightAware (Why Join?)
  • Login
  • US Flag 
02:40PM EST


 

Airport Tracker/Info


-or-


 

Live Flight TrackerFlight Track Log ✈ KAP29 ✈ 16-Jun-2013 ✈ KSLK - KBOS

Flight Track Log - Related Links

Times and Time Zones

All times are in EDT time to prevent confusion due to time zone crossing. See the KAP29 flight status page for this flight to view local times or setup timezone preferences in your user account.

Time Position Orientation Groundspeed Altitude Reporting Facility
EDT Latitude Longitude Course Direction KTS MPH feet Rate Location/Type
06:35AM 44.3967 -73.9886 109° East 155 178 6,200  Level Boston Center
06:36AM 44.3725 -73.9358 123° Southeast 160 184 6,600 360 Climbing Boston Center
06:37AM 44.3481 -73.8828 123° Southeast 160 184 7,000 480 Climbing Boston Center
06:38AM 44.2924 -74.0136 133° Southeast  Level FlightAware Approximate
06:38AM 44.3217 -73.8272 124° Southeast 165 190 7,600  Level Boston Center
06:39AM 44.2770 -73.9748 109° East  Level FlightAware Approximate
06:39AM 44.2972 -73.7744 123° Southeast 170 196 8,300  Level Boston Center
06:40AM 44.2708 -73.7128 121° Southeast 170 196 8,900 360 Climbing Boston Center
06:41AM 44.2403 -73.6572 128° Southeast 176 203 9,100 60 Climbing Boston Center
06:42AM 44.2117 -73.5928 122° Southeast 186 214 9,100  Level Boston Center
06:43AM 44.1811 -73.5314 125° Southeast 186 214 9,100  Level Boston Center
06:44AM 44.1506 -73.4700 125° Southeast 191 220 9,100  Level Boston Center
06:45AM 44.1217 -73.4117 125° Southeast 191 220 9,100  Level Boston Center
06:46AM 44.0931 -73.3506 123° Southeast 191 220 9,100  Level Boston Center
06:47AM 44.0664 -73.2894 121° Southeast 191 220 9,100  Level Boston Center
06:48AM 44.0356 -73.2314 126° Southeast 191 220 9,100  Level Boston Center
06:49AM 44.0131 -73.1792 121° Southeast 191 220 9,100  Level Boston Center
06:50AM 43.9822 -73.1181 125° Southeast 191 220 9,100  Level Boston Center
06:51AM 43.9556 -73.0631 124° Southeast 185 213 9,100  Level Boston Center
06:52AM 43.9244 -73.0022 125° Southeast 185 213 9,100  Level Boston Center
06:53AM 43.8978 -72.9442 123° Southeast 179 206 9,100  Level Boston Center
06:54AM 43.8686 -72.8836 124° Southeast 184 212 9,100  Level Boston Center
06:55AM 43.8378 -72.8228 125° Southeast 184 212 9,100 -60 Level Boston Center
06:56AM 43.8086 -72.7622 124° Southeast 184 212 9,000 -60 Descending Boston Center
06:57AM 43.7817 -72.7047 123° Southeast 184 212 9,000  Level Boston Center
06:58AM 43.7506 -72.6500 128° Southeast 179 206 9,000  Level Boston Center
06:59AM 43.7258 -72.5922 121° Southeast 174 200 9,000  Level Boston Center
07:00AM 43.6986 -72.5350 123° Southeast 174 200 9,000  Level Boston Center
07:01AM 43.6717 -72.4803 124° Southeast 174 200 9,000  Level Boston Center
07:02AM 43.6425 -72.4228 125° Southeast 174 200 9,000  Level Boston Center
07:03AM 43.6133 -72.3628 124° Southeast 174 200 9,000  Level Boston Center
07:04AM 43.5819 -72.2939 122° Southeast 174 200 9,100  Climbing Boston Center
07:05AM 43.5506 -72.2339 126° Southeast 179 206 9,000 -60 Descending Boston Center
07:06AM 43.5214 -72.1767 125° Southeast 179 206 9,000  Level Boston Center
07:07AM 43.4942 -72.1194 123° Southeast 179 206 9,000  Level Boston Center
07:08AM 43.4647 -72.0625 125° Southeast 179 206 9,000  Level Boston Center
07:09AM 43.4375 -72.0025 122° Southeast 179 206 9,000  Level Boston Center
07:10AM 43.4058 -71.9458 128° Southeast 179 206 9,000  Level Boston Center
07:11AM 43.3725 -71.8975 133° Southeast 179 206 9,000  Level Boston Center
07:12AM 43.3367 -71.8550 139° Southeast 179 206 9,100  Climbing Boston Center
07:13AM 43.2969 -71.8039 137° Southeast 179 206 9,000 -60 Descending Boston Center
07:14AM 43.2653 -71.7614 136° Southeast 184 212 9,000  Level Boston Center
07:15AM 43.2256 -71.7106 137° Southeast 184 212 9,000  Level Boston Center
07:16AM 43.1919 -71.6683 138° Southeast 184 212 9,000  Level Boston Center
07:17AM 43.1500 -71.6167 138° Southeast 180 207 9,000  Level KA90
07:18AM 43.1167 -71.5667 132° Southeast 179 206 9,000 -120 Level KA90
07:19AM 43.0833 -71.5167 132° Southeast 185 213 8,800 -420 Descending KA90
07:20AM 43.0500 -71.4667 132° Southeast 194 223 8,300 -480 Descending KA90
07:21AM 43.0000 -71.4167 144° Southeast 196 226 7,900 -420 Descending KA90
07:22AM 42.9500 -71.3500 136° Southeast 196 226 7,400 -480 Descending KA90
07:23AM 42.9167 -71.3167 144° Southeast 195 224 7,000 -360 Descending KA90
07:24AM 42.8833 -71.2667 132° Southeast 191 220 6,800 -300 Descending KA90
07:25AM 42.8333 -71.2167 144° Southeast 186 214 6,400 -420 Descending KA90
07:26AM 42.7833 -71.1833 154° Southeast 179 206 6,000 -360 Descending KA90
07:27AM 42.7500 -71.1667 160° South 176 203 5,700 -480 Descending KA90
07:28AM 42.7000 -71.1500 166° South 173 199 5,100 -540 Descending KA90
07:29AM 42.6333 -71.1167 160° South 174 200 4,500 -480 Descending KA90
07:30AM 42.6167 -71.1167 180° South 174 200 4,300 -540 Descending KA90
07:31AM 42.5667 -71.0667 144° Southeast 177 204 3,600 -540 Descending KA90
07:32AM 42.5167 -71.0500 166° South 173 199 3,100 -600 Descending KA90
07:33AM 42.4833 -71.0333 160° South 175 201 2,600 -780 Descending KA90
07:34AM 42.4333 -71.0000 154° Southeast 174 200 1,800 -900 Descending KA90
07:35AM 42.4000 -70.9833 160° South 148 170 900 -900 Descending KA90
07:37AM 42.3630 -71.0064 172° South  Level Estimated
07:44AM 42.3630 -71.0064 172° South  Level Estimated